»·PEaware :: DAL198 KSEA-KSLC

DAL198 :: KSEA-KSLC

FLIGHT INFORMATION

Flight Status: Arrived
Operator:
Delta Air Lines
More flights by this operator :: More flights under this callsign
Pilot: Mike C. (16705)
Aircraft: BOEING 737-800
(B738)
More flights by this aircraft type
Origin: KSEA Seattle-Tacoma Intl
United States
Destination: KSLC Salt Lake City Intl
United States
More flights between these airports :: More routes between these airports
Route: SUMMA1 SUMMA J54 BKE BYI SKEES5
File this flight plan on PilotEdge
Remarks: PBN / A1B1C1D1S1S2 DOF / 180506 REG / N838NN EET / KZLC0038 OPR / DAL PER / C RMK / TCAS SIMBRIEF
Altitude:
(Current/Filed)
35,000ft
Speed:
(Current/Filed)
465kts
Departed: 06-May-18 01:59 PM
Arrived: 06-May-18 03:31 PM
Distance/Time
Traveled:
597nm/1:32
Distance/Time
To Go:
Arrived

Flight Plot

Page will automatically refresh every two minutes.

Flight plan parsing failed; only flown route is shown


Map Options




Map Legend


Flown Route
Filed Route
Departure Airport
Arrival Airport
Navaid (VOR, NDB)
Fix

Horizontal Profiles

Position Reports

Time Latitude Longitude Heading Altitude Ground
Speed
06-May-18 13:36 47.441282 -122.303094 271 440ft 0kts
06-May-18 13:37 47.441282 -122.303094 271 440ft 0kts
06-May-18 13:38 47.441282 -122.303094 271 440ft 0kts
06-May-18 13:39 47.441282 -122.303094 271 440ft 0kts
06-May-18 13:40 47.441282 -122.303094 271 440ft 0kts
06-May-18 13:41 47.441282 -122.303094 271 440ft 0kts
06-May-18 13:42 47.441282 -122.303094 271 440ft 0kts
06-May-18 13:43 47.441282 -122.303094 271 440ft 0kts
06-May-18 13:44 47.441297 -122.302714 254 440ft 2kts
06-May-18 13:45 47.441674 -122.302488 148 440ft 0kts
06-May-18 13:46 47.441674 -122.302488 148 440ft 0kts
06-May-18 13:47 47.441674 -122.302488 148 440ft 0kts
06-May-18 13:48 47.441310 -122.302340 173 440ft 0kts
06-May-18 13:49 47.441149 -122.302314 174 440ft 0kts
06-May-18 13:50 47.439941 -122.303787 261 440ft 6kts
06-May-18 13:51 47.440313 -122.306343 345 440ft 10kts
06-May-18 13:52 47.444101 -122.306355 359 440ft 14kts
06-May-18 13:53 47.447917 -122.306382 1 440ft 13kts
06-May-18 13:54 47.452131 -122.306253 0 440ft 17kts
06-May-18 13:55 47.457524 -122.306245 0 440ft 20kts
06-May-18 13:56 47.461788 -122.306175 0 440ft 16kts
06-May-18 13:57 47.463595 -122.306364 322 440ft 0kts
06-May-18 13:58 47.462376 -122.307767 176 440ft 20kts
06-May-18 13:59 47.425489 -122.307700 178 1916ft 179kts
06-May-18 14:00 47.373560 -122.303824 174 4449ft 219kts
06-May-18 14:01 47.303555 -122.309473 181 6894ft 273kts
06-May-18 14:02 47.226781 -122.298938 154 10244ft 283kts
06-May-18 14:03 47.148123 -122.250216 161 12152ft 342kts
06-May-18 14:03 47.070875 -122.212038 161 14399ft 358kts
06-May-18 14:05 46.958270 -122.156312 162 17524ft 373kts
06-May-18 14:06 46.858389 -122.106578 162 19900ft 386kts
06-May-18 14:07 46.754665 -122.055398 162 22009ft 399kts
06-May-18 14:08 46.648676 -122.001403 152 23820ft 410kts
06-May-18 14:08 46.584875 -121.899138 124 25285ft 420kts
06-May-18 14:09 46.524428 -121.751626 122 26843ft 427kts
06-May-18 14:10 46.463958 -121.602053 122 28264ft 433kts
06-May-18 14:11 46.403286 -121.450280 121 29677ft 435kts
06-May-18 14:12 46.342547 -121.298944 122 31107ft 435kts
06-May-18 14:13 46.281493 -121.148018 122 32398ft 435kts
06-May-18 14:14 46.219843 -120.996579 122 33574ft 436kts
06-May-18 14:15 46.157996 -120.845528 123 34614ft 439kts
06-May-18 14:16 46.095414 -120.693534 123 35044ft 445kts
06-May-18 14:17 46.031171 -120.538375 123 35041ft 450kts
06-May-18 14:18 45.966893 -120.383992 123 35034ft 451kts
06-May-18 14:19 45.902329 -120.229786 124 35032ft 450kts
06-May-18 14:20 45.837521 -120.075851 124 35031ft 449kts
06-May-18 14:21 45.772774 -119.922898 124 35020ft 449kts
06-May-18 14:22 45.707729 -119.770080 124 35019ft 450kts
06-May-18 14:23 45.642121 -119.616779 124 35027ft 451kts
06-May-18 14:24 45.576371 -119.463978 124 35031ft 452kts
06-May-18 14:25 45.510004 -119.310582 125 35033ft 454kts
06-May-18 14:26 45.443515 -119.157742 125 35021ft 455kts
06-May-18 14:27 45.376698 -119.004968 125 35021ft 455kts
06-May-18 14:28 45.309445 -118.852033 125 35033ft 455kts
06-May-18 14:29 45.242154 -118.699830 126 35057ft 456kts
06-May-18 14:30 45.174589 -118.547820 126 35065ft 456kts
06-May-18 14:31 45.106531 -118.395512 126 35070ft 457kts
06-May-18 14:32 45.038366 -118.243771 126 35079ft 458kts
06-May-18 14:33 44.969897 -118.091384 126 35076ft 459kts
06-May-18 14:34 44.900938 -117.939813 127 35071ft 460kts
06-May-18 14:35 44.830967 -117.788020 130 35069ft 459kts
06-May-18 14:37 44.753794 -117.645310 132 35068ft 458kts
06-May-18 14:38 44.676181 -117.503261 132 35064ft 459kts
06-May-18 14:39 44.598529 -117.360331 132 35055ft 460kts
06-May-18 14:40 44.521116 -117.217769 132 35042ft 460kts
06-May-18 14:41 44.443388 -117.075680 132 35029ft 460kts
06-May-18 14:42 44.365069 -116.933337 132 35014ft 461kts
06-May-18 14:43 44.286720 -116.791670 133 35007ft 462kts
06-May-18 14:44 44.207818 -116.649718 133 35005ft 462kts
06-May-18 14:45 44.128873 -116.508384 133 35001ft 463kts
06-May-18 14:46 44.049621 -116.367194 134 35002ft 463kts
06-May-18 14:47 43.969950 -116.225947 134 34989ft 464kts
06-May-18 14:48 43.890234 -116.085310 134 34988ft 464kts
06-May-18 14:49 43.810418 -115.945172 134 34998ft 464kts
06-May-18 14:50 43.730014 -115.804677 135 35011ft 464kts
06-May-18 14:51 43.649601 -115.664843 135 35026ft 466kts
06-May-18 14:52 43.568753 -115.524921 135 35031ft 467kts
06-May-18 14:53 43.487123 -115.384329 135 35020ft 469kts
06-May-18 14:54 43.405323 -115.244117 136 35012ft 471kts
06-May-18 14:55 43.322832 -115.103397 136 35012ft 473kts
06-May-18 14:56 43.240197 -114.963103 136 35018ft 473kts
06-May-18 14:57 43.157159 -114.822806 136 35037ft 474kts
06-May-18 14:58 43.073647 -114.682371 136 35032ft 476kts
06-May-18 14:59 42.990036 -114.542437 136 35025ft 476kts
06-May-18 15:00 42.906090 -114.402601 137 35011ft 477kts
06-May-18 15:01 42.821464 -114.262303 137 35004ft 479kts
06-May-18 15:02 42.736832 -114.122123 137 35006ft 481kts
06-May-18 15:03 42.651210 -113.981730 137 35001ft 483kts
06-May-18 15:04 42.564299 -113.842530 142 35000ft 479kts
06-May-18 15:05 42.469475 -113.716498 143 35000ft 479kts
06-May-18 15:06 42.374375 -113.590102 144 34201ft 474kts
06-May-18 15:07 42.281964 -113.467487 144 32185ft 458kts
06-May-18 15:08 42.192360 -113.349245 143 30277ft 444kts
06-May-18 15:09 42.105047 -113.234540 143 28455ft 431kts
06-May-18 15:10 42.020419 -113.123488 141 26678ft 420kts
06-May-18 15:11 41.937899 -113.015129 140 24918ft 411kts
06-May-18 15:12 41.856557 -112.908621 140 23160ft 403kts
06-May-18 15:13 41.776613 -112.804993 140 21430ft 397kts
06-May-18 15:14 41.698632 -112.704300 139 19741ft 375kts
06-May-18 15:15 41.625831 -112.610341 139 18159ft 360kts
06-May-18 15:16 41.553431 -112.517480 139 16510ft 362kts
06-May-18 15:17 41.476715 -112.435525 141 15374ft 344kts
06-May-18 15:18 41.412622 -112.342664 135 14494ft 341kts
06-May-18 15:19 41.349971 -112.249952 135 13619ft 331kts
06-May-18 15:20 41.290268 -112.162251 135 12712ft 309kts
06-May-18 15:21 41.233960 -112.080277 136 11995ft 286kts
06-May-18 15:22 41.178254 -112.022972 169 11754ft 226kts
06-May-18 15:23 41.123928 -112.012666 175 10739ft 187kts
06-May-18 15:24 41.071956 -112.007408 176 9334ft 186kts
06-May-18 15:25 41.020412 -112.001646 175 8339ft 181kts
06-May-18 15:26 40.972159 -111.996033 175 7415ft 169kts
06-May-18 15:27 40.926933 -111.990757 175 6550ft 159kts
06-May-18 15:28 40.884128 -111.985769 175 5757ft 145kts
06-May-18 15:29 40.845521 -111.981189 177 4899ft 134kts
06-May-18 15:30 40.808712 -111.977068 175 4286ft 134kts
06-May-18 15:31 40.791895 -111.975430 190 4235ft 15kts
06-May-18 15:32 40.790696 -111.976125 207 4235ft 0kts
06-May-18 15:33 40.790289 -111.978694 270 4235ft 10kts
06-May-18 15:34 40.790021 -111.981098 264 4235ft 9kts
06-May-18 15:35 40.789832 -111.983939 281 4235ft 6kts
06-May-18 15:36 40.789691 -111.985389 162 4235ft 1kts
06-May-18 15:37 40.789277 -111.985211 161 4235ft 0kts
06-May-18 15:38 40.789277 -111.985211 161 4235ft 0kts
06-May-18 15:39 40.789277 -111.985211 161 4235ft 0kts
06-May-18 15:40 40.789277 -111.985211 161 4235ft 0kts

Navigation Log

Ident Type
Flight plan parsing failed, navigation log unavailable